createdAt,value
2019-01-05T00:00:03.321Z,95.22
2019-01-05T00:03:09.997Z,95.16
2019-01-05T00:06:13.887Z,95.05
2019-01-05T00:09:02.041Z,94.99
2019-01-05T00:11:49.048Z,95.15
2019-01-05T00:14:44.008Z,95.20
2019-01-05T00:17:31.515Z,95.01
2019-01-05T00:20:22.894Z,95.07
2019-01-05T00:23:20.098Z,95.11
2019-01-05T00:26:11.928Z,95.05
2019-01-05T00:29:03.002Z,95.35
2019-01-05T00:31:51.364Z,95.31
2019-01-05T00:34:45.914Z,95.26
2019-01-05T00:37:34.942Z,95.24
2019-01-05T00:40:20.047Z,95.34
2019-01-05T00:43:08.294Z,95.07
2019-01-05T00:45:55.788Z,95.25
2019-01-05T00:48:42.483Z,95.30
2019-01-05T00:51:29.866Z,95.33
2019-01-05T00:54:21.848Z,95.21
2019-01-05T00:57:10.261Z,95.23
2019-01-05T01:00:13.594Z,95.27
2019-01-05T01:03:02.058Z,95.27
2019-01-05T01:05:49.212Z,95.17
2019-01-05T01:08:36.283Z,95.30
2019-01-05T01:11:33.282Z,95.26
2019-01-05T01:14:29.535Z,95.31
2019-01-05T01:17:19.688Z,95.42
2019-01-05T01:20:11.892Z,95.45
2019-01-05T01:22:52.524Z,95.51
2019-01-05T01:25:49.615Z,95.49
2019-01-05T01:28:36.552Z,95.45
2019-01-05T01:31:23.828Z,95.31
2019-01-05T01:34:15.126Z,95.49
2019-01-05T01:37:03.466Z,95.50
2019-01-05T01:39:51.686Z,95.46
2019-01-05T01:42:58.671Z,95.43
2019-01-05T01:45:58.152Z,95.31
2019-01-05T01:48:42.684Z,95.29
2019-01-05T01:51:29.778Z,95.24
2019-01-05T01:54:16.970Z,95.23
2019-01-05T01:57:05.848Z,95.14
2019-01-05T02:00:15.018Z,95.14
2019-01-05T02:03:10.072Z,95.20
2019-01-05T02:06:05.918Z,95.15
2019-01-05T02:08:53.985Z,95.08
2019-01-05T02:11:42.747Z,95.08
2019-01-05T02:14:42.354Z,95.11
2019-01-05T02:17:34.819Z,95.10
2019-01-05T02:21:03.186Z,95.32
2019-01-05T02:24:40.994Z,95.52
2019-01-05T02:28:01.458Z,95.49
2019-01-05T02:35:18.856Z,95.47
2019-01-05T02:38:46.490Z,95.50
2019-01-05T02:42:01.560Z,95.33
2019-01-05T02:45:28.623Z,95.43
2019-01-05T02:48:57.562Z,95.51
2019-01-05T02:52:31.524Z,95.54
2019-01-05T02:56:03.217Z,95.48
2019-01-05T02:59:19.398Z,95.43
2019-01-05T03:02:57.556Z,95.53
2019-01-05T03:06:25.857Z,95.48
2019-01-05T03:09:35.374Z,95.37
2019-01-05T03:13:20.485Z,95.49
2019-01-05T03:16:59.192Z,95.65
2019-01-05T03:20:01.250Z,95.70
2019-01-05T03:23:17.795Z,95.81
2019-01-05T03:27:01.936Z,95.87
2019-01-05T03:30:15.728Z,95.79
2019-01-05T03:33:33.825Z,95.73
2019-01-05T03:37:14.971Z,95.79
2019-01-05T03:40:32.546Z,95.84
2019-01-05T03:43:58.888Z,95.75
2019-01-05T03:47:39.212Z,95.83
2019-01-05T03:50:55.575Z,97.79
2019-01-05T03:54:39.110Z,98.08
2019-01-05T03:57:50.773Z,97.94
2019-01-05T04:01:25.998Z,97.72
2019-01-05T04:04:44.101Z,97.65
2019-01-05T04:07:54.472Z,97.60
2019-01-05T04:11:46.922Z,97.48
2019-01-05T04:15:12.568Z,97.17
2019-01-05T04:18:45.745Z,96.25
2019-01-05T04:22:16.376Z,95.80
2019-01-05T04:25:46.214Z,95.71
2019-01-05T04:29:22.407Z,95.89
2019-01-05T04:32:41.512Z,96.22
2019-01-05T04:36:00.235Z,96.18
2019-01-05T04:39:54.553Z,96.00
2019-01-05T04:43:30.635Z,95.92
2019-01-05T04:46:59.102Z,95.95
2019-01-05T04:50:40.736Z,95.88
2019-01-05T04:54:12.240Z,95.81
2019-01-05T04:57:50.360Z,95.84
2019-01-05T05:01:23.352Z,95.70
2019-01-05T05:04:55.116Z,95.72
2019-01-05T05:08:10.306Z,95.61
2019-01-05T05:11:36.175Z,95.53
2019-01-05T05:14:55.360Z,95.50
2019-01-05T05:18:21.108Z,95.57
2019-01-05T05:21:49.640Z,95.62
2019-01-05T05:25:36.479Z,95.62
2019-01-05T05:29:16.047Z,95.96
2019-01-05T05:32:51.540Z,96.12
2019-01-05T05:36:35.814Z,96.16
2019-01-05T05:39:52.200Z,96.16
2019-01-05T05:43:22.324Z,96.04
2019-01-05T05:46:27.972Z,95.91
2019-01-05T05:49:51.622Z,95.93
2019-01-05T05:53:33.525Z,95.91
2019-01-05T05:56:57.778Z,95.86
2019-01-05T06:00:15.837Z,96.02
2019-01-05T06:03:20.794Z,96.13
2019-01-05T06:07:01.534Z,96.10
2019-01-05T06:10:45.024Z,96.22
2019-01-05T06:14:05.268Z,96.04
2019-01-05T06:17:40.168Z,96.00
2019-01-05T06:21:12.764Z,95.86
2019-01-05T06:25:04.072Z,95.83
2019-01-05T06:28:46.086Z,95.82
2019-01-05T06:32:32.728Z,95.81
2019-01-05T06:36:00.583Z,95.77
2019-01-05T06:39:35.042Z,95.73
2019-01-05T06:43:10.433Z,95.72
2019-01-05T06:46:44.418Z,95.68
2019-01-05T06:49:55.273Z,95.84
2019-01-05T06:53:11.018Z,95.93
2019-01-05T06:56:58.557Z,95.86
2019-01-05T07:00:20.810Z,95.82
2019-01-05T07:03:40.758Z,95.87
2019-01-05T07:07:08.850Z,95.75
2019-01-05T07:10:40.166Z,95.79
2019-01-05T07:14:04.390Z,95.71
2019-01-05T07:17:49.202Z,95.76
2019-01-05T07:21:03.318Z,95.71
2019-01-05T07:24:39.444Z,95.65
2019-01-05T07:28:16.702Z,95.67
2019-01-05T07:31:45.063Z,95.60
2019-01-05T07:35:42.472Z,95.51
2019-01-05T07:39:05.918Z,95.42
2019-01-05T07:42:32.859Z,95.45
2019-01-05T07:45:52.751Z,95.56
2019-01-05T07:49:45.988Z,95.45
2019-01-05T07:52:57.540Z,95.50
2019-01-05T07:56:21.488Z,95.45
2019-01-05T07:59:48.138Z,95.51
2019-01-05T08:03:26.228Z,95.39
2019-01-05T08:07:00.692Z,95.30
2019-01-05T08:10:34.802Z,95.49
2019-01-05T08:14:16.963Z,95.47
2019-01-05T08:18:01.388Z,95.44
2019-01-05T08:21:43.092Z,95.47
2019-01-05T08:25:11.292Z,95.47
2019-01-05T08:28:29.268Z,95.57
2019-01-05T08:31:55.189Z,95.46
2019-01-05T08:35:21.506Z,95.55
2019-01-05T08:38:45.466Z,95.62
2019-01-05T08:42:09.543Z,95.69
2019-01-05T08:45:42.978Z,95.67
2019-01-05T08:49:16.984Z,95.43
2019-01-05T08:52:43.633Z,95.44
2019-01-05T08:56:44.296Z,95.22
2019-01-05T09:00:13.136Z,95.33
2019-01-05T09:03:54.466Z,95.45
2019-01-05T09:07:38.985Z,95.36
2019-01-05T09:11:01.325Z,95.47
2019-01-05T09:14:42.921Z,95.53
2019-01-05T09:18:07.676Z,95.43
2019-01-05T09:21:49.769Z,95.45
2019-01-05T09:25:37.606Z,95.54
2019-01-05T09:29:31.008Z,95.51
2019-01-05T09:33:28.730Z,95.44
2019-01-05T09:36:38.676Z,95.42
2019-01-05T09:39:59.655Z,95.34
2019-01-05T09:43:36.712Z,95.39
2019-01-05T09:47:06.576Z,95.38
2019-01-05T09:50:44.789Z,95.38
2019-01-05T09:54:14.710Z,95.47
2019-01-05T09:58:21.160Z,95.36
2019-01-05T10:01:46.326Z,95.31
2019-01-05T10:05:15.867Z,95.39
2019-01-05T10:08:49.790Z,94.87
2019-01-05T10:12:37.760Z,94.49
2019-01-05T10:16:02.934Z,94.70
2019-01-05T10:19:31.574Z,94.65
2019-01-05T10:23:09.338Z,94.70
2019-01-05T10:26:45.178Z,94.59
2019-01-05T10:30:09.067Z,94.66
2019-01-05T10:33:54.372Z,94.67
2019-01-05T10:37:29.007Z,94.71
2019-01-05T10:40:52.479Z,94.79
2019-01-05T10:44:20.858Z,94.68
2019-01-05T10:48:00.560Z,94.60
2019-01-05T10:51:14.653Z,94.75
2019-01-05T10:54:51.669Z,94.77
2019-01-05T10:58:16.606Z,94.91
2019-01-05T11:01:41.728Z,94.86
2019-01-05T11:05:11.893Z,94.67
2019-01-05T11:08:41.428Z,94.70
2019-01-05T11:12:19.395Z,94.64
2019-01-05T11:16:15.910Z,94.73
2019-01-05T11:19:33.695Z,94.50
2019-01-05T11:23:17.582Z,94.10
2019-01-05T11:27:07.466Z,94.26
2019-01-05T11:31:01.559Z,94.33
2019-01-05T11:34:45.106Z,94.25
2019-01-05T11:37:58.030Z,94.55
2019-01-05T11:41:20.221Z,94.19
2019-01-05T11:44:27.235Z,94.20
2019-01-05T11:47:36.723Z,93.99
2019-01-05T11:50:49.837Z,94.19
2019-01-05T11:54:11.296Z,94.11
2019-01-05T11:57:37.108Z,93.88
2019-01-05T12:00:53.352Z,94.01
2019-01-05T12:04:14.286Z,93.73
2019-01-05T12:07:49.175Z,93.25
2019-01-05T12:11:26.791Z,93.21
2019-01-05T12:15:13.899Z,93.46
2019-01-05T12:18:31.150Z,93.28
2019-01-05T12:22:04.275Z,93.37
2019-01-05T12:25:48.183Z,93.75
2019-01-05T12:29:26.250Z,93.33
2019-01-05T12:33:08.324Z,93.29
2019-01-05T12:36:39.095Z,93.01
2019-01-05T12:40:09.131Z,93.46
2019-01-05T12:43:52.249Z,93.69
2019-01-05T12:47:15.609Z,93.38
2019-01-05T12:50:48.457Z,93.29
2019-01-05T12:54:39.367Z,93.17
2019-01-05T12:58:09.515Z,93.37
2019-01-05T13:01:37.783Z,93.67
2019-01-05T13:05:25.923Z,93.53
2019-01-05T13:08:39.935Z,93.24
2019-01-05T13:12:12.386Z,93.26
2019-01-05T13:15:33.155Z,93.26
2019-01-05T13:18:58.113Z,92.64
2019-01-05T13:22:37.237Z,92.64
2019-01-05T13:26:18.976Z,93.15
2019-01-05T13:29:56.980Z,93.29
2019-01-05T13:33:37.356Z,93.13
2019-01-05T13:37:03.292Z,93.06
2019-01-05T13:40:08.899Z,93.29
2019-01-05T13:43:20.653Z,92.86
2019-01-05T13:47:16.744Z,92.77
2019-01-05T13:51:07.771Z,92.50
2019-01-05T13:54:11.275Z,92.38
2019-01-05T13:57:21.209Z,92.73
2019-01-05T14:00:09.089Z,92.91
2019-01-05T14:02:57.636Z,92.88
2019-01-05T14:05:49.147Z,92.71
2019-01-05T14:08:52.478Z,92.53
2019-01-05T14:11:43.984Z,92.60
2019-01-05T14:14:44.570Z,92.87
2019-01-05T14:17:40.361Z,92.86
2019-01-05T14:20:27.713Z,92.89
2019-01-05T14:23:14.815Z,92.89
2019-01-05T14:26:18.430Z,93.15
2019-01-05T14:29:06.864Z,92.75
2019-01-05T14:32:07.199Z,92.63
2019-01-05T14:34:58.148Z,92.59
2019-01-05T14:37:44.764Z,92.70
2019-01-05T14:40:29.634Z,92.45
2019-01-05T14:43:17.972Z,92.12
2019-01-05T14:46:12.361Z,91.79
2019-01-05T14:48:59.318Z,91.56
2019-01-05T14:51:38.906Z,91.62
2019-01-05T14:54:30.297Z,91.58
2019-01-05T14:57:29.897Z,90.96
2019-01-05T15:00:18.288Z,91.38
2019-01-05T15:03:05.543Z,91.33
2019-01-05T15:06:02.996Z,91.00
2019-01-05T15:08:55.797Z,90.75
2019-01-05T15:11:44.169Z,91.22
2019-01-05T15:14:31.095Z,91.06
2019-01-05T15:17:32.411Z,91.17
2019-01-05T15:20:19.008Z,91.20
2019-01-05T15:23:16.174Z,91.56
2019-01-05T15:26:01.455Z,91.79
2019-01-05T15:28:52.700Z,92.23
2019-01-05T15:31:41.123Z,92.17
2019-01-05T15:34:35.640Z,92.27
2019-01-05T15:37:23.982Z,92.55
2019-01-05T15:40:11.315Z,92.70
2019-01-05T15:43:02.241Z,92.81
2019-01-05T15:46:02.776Z,92.97
2019-01-05T15:48:57.075Z,93.25
2019-01-05T15:51:54.018Z,93.25
2019-01-05T15:54:42.335Z,93.30
2019-01-05T15:57:45.939Z,93.29
2019-01-05T16:00:43.674Z,93.49
2019-01-05T16:03:32.097Z,93.27
2019-01-05T16:06:23.155Z,93.01
2019-01-05T16:09:13.379Z,92.71
2019-01-05T16:12:16.902Z,92.18
2019-01-05T16:15:08.228Z,92.33
2019-01-05T16:17:57.621Z,92.10
2019-01-05T16:20:48.903Z,92.22
2019-01-05T16:23:37.799Z,92.18
2019-01-05T16:26:33.607Z,91.88
2019-01-05T16:29:24.638Z,91.93
2019-01-05T16:32:12.999Z,91.78
2019-01-05T16:34:59.921Z,91.60
2019-01-05T16:38:00.231Z,91.80
2019-01-05T16:41:06.690Z,92.01
2019-01-05T16:44:00.870Z,92.07
2019-01-05T16:46:48.131Z,92.11
2019-01-05T16:49:42.413Z,92.01
2019-01-05T16:52:29.697Z,92.00
2019-01-05T16:55:18.721Z,91.90
2019-01-05T16:58:05.662Z,92.17
2019-01-05T17:01:09.161Z,92.06
2019-01-05T17:04:00.364Z,92.05
2019-01-05T17:06:48.745Z,92.18
2019-01-05T17:09:39.630Z,92.29
2019-01-05T17:12:43.048Z,92.09
2019-01-05T17:15:43.763Z,92.22
2019-01-05T17:18:39.731Z,92.25
2019-01-05T17:21:24.903Z,92.21
2019-01-05T17:24:12.034Z,92.12
2019-01-05T17:26:59.077Z,92.09
2019-01-05T17:29:39.491Z,92.35
2019-01-05T17:32:26.661Z,92.21
2019-01-05T17:35:13.530Z,92.32
2019-01-05T17:38:00.761Z,92.42
2019-01-05T17:41:04.416Z,92.50
2019-01-05T17:43:49.927Z,92.52
2019-01-05T17:46:36.822Z,92.73
2019-01-05T17:49:27.940Z,92.72
2019-01-05T17:52:28.286Z,92.90
2019-01-05T17:55:29.120Z,92.96
2019-01-05T17:58:11.338Z,92.86
2019-01-05T18:00:58.562Z,92.72
2019-01-05T18:03:50.001Z,92.71
2019-01-05T18:06:33.729Z,92.55
2019-01-05T18:09:26.792Z,92.46
2019-01-05T18:12:09.265Z,92.51
2019-01-05T18:14:56.100Z,92.53
2019-01-05T18:17:43.360Z,92.53
2019-01-05T18:20:34.703Z,92.24
2019-01-05T18:23:21.971Z,92.37
2019-01-05T18:26:20.144Z,92.08
2019-01-05T18:29:11.255Z,92.09
2019-01-05T18:31:58.379Z,92.01
2019-01-05T18:34:45.216Z,91.81
2019-01-05T18:37:32.338Z,92.01
2019-01-05T18:40:19.570Z,91.84
2019-01-05T18:43:26.095Z,91.92
2019-01-05T18:46:07.823Z,91.74
2019-01-05T18:48:54.775Z,91.70
2019-01-05T18:51:41.765Z,91.82
2019-01-05T18:54:28.881Z,91.68
2019-01-05T18:57:25.326Z,91.58
2019-01-05T19:00:12.510Z,91.66
2019-01-05T19:03:00.935Z,91.79
2019-01-05T19:05:55.105Z,91.81
2019-01-05T19:08:41.971Z,91.83
2019-01-05T19:11:33.072Z,91.94
2019-01-05T19:14:27.310Z,91.96
2019-01-05T19:17:14.473Z,92.06
2019-01-05T19:20:11.840Z,91.74
2019-01-05T19:22:56.086Z,92.02
2019-01-05T19:25:44.463Z,92.02
2019-01-05T19:28:38.508Z,91.80
2019-01-05T19:31:25.262Z,91.75
2019-01-05T19:34:29.025Z,92.01
2019-01-05T19:37:25.970Z,92.35
2019-01-05T19:40:12.980Z,92.56
2019-01-05T19:43:04.274Z,92.60
2019-01-05T19:45:46.011Z,92.28
2019-01-05T19:48:34.373Z,92.53
2019-01-05T19:51:21.202Z,92.51
2019-01-05T19:54:08.549Z,92.30
2019-01-05T19:56:55.437Z,92.15
2019-01-05T19:59:58.931Z,92.27
2019-01-05T20:02:45.844Z,92.43
2019-01-05T20:05:34.230Z,92.43
2019-01-05T20:08:38.646Z,92.40
2019-01-05T20:11:45.246Z,92.35
2019-01-05T20:14:29.996Z,92.28
2019-01-05T20:17:36.744Z,92.33
2019-01-05T20:20:21.887Z,92.09
2019-01-05T20:23:17.572Z,92.10
2019-01-05T20:26:21.093Z,92.39
2019-01-05T20:29:18.802Z,92.40
2019-01-05T20:32:07.197Z,92.48
2019-01-05T20:34:47.806Z,92.74
2019-01-05T20:37:51.818Z,92.51
2019-01-05T20:40:43.029Z,92.24
2019-01-05T20:43:34.418Z,92.12
2019-01-05T20:46:22.843Z,91.73
2019-01-05T20:49:07.844Z,91.92
2019-01-05T20:52:11.523Z,91.90
2019-01-05T20:54:58.594Z,91.98
2019-01-05T20:57:45.621Z,92.09
2019-01-05T21:00:42.905Z,92.01
2019-01-05T21:03:28.832Z,91.98
2019-01-05T21:06:20.487Z,91.92
2019-01-05T21:09:07.820Z,92.06
2019-01-05T21:11:56.206Z,92.19
2019-01-05T21:14:43.517Z,92.06
2019-01-05T21:17:42.379Z,92.03
2019-01-05T21:20:44.853Z,92.21
2019-01-05T21:23:46.234Z,92.20
2019-01-05T21:26:37.607Z,92.22
2019-01-05T21:29:24.863Z,92.35
2019-01-05T21:32:11.992Z,92.50
2019-01-05T21:35:09.741Z,92.57
2019-01-05T21:37:49.849Z,92.45
2019-01-05T21:40:37.369Z,92.59
2019-01-05T21:43:28.629Z,92.88
2019-01-05T21:46:15.713Z,93.18
2019-01-05T21:49:04.555Z,93.41
2019-01-05T21:51:55.865Z,93.45
2019-01-05T21:54:49.945Z,93.69
2019-01-05T21:57:37.079Z,93.49
2019-01-05T22:00:31.182Z,93.56
2019-01-05T22:03:18.679Z,93.65
2019-01-05T22:06:10.090Z,93.81
2019-01-05T22:09:07.929Z,93.87
2019-01-05T22:11:55.116Z,94.09
2019-01-05T22:14:46.780Z,93.76
2019-01-05T22:17:34.335Z,93.68
2019-01-05T22:20:21.485Z,93.61
2019-01-05T22:23:08.210Z,93.43
2019-01-05T22:25:55.127Z,93.45
2019-01-05T22:28:52.971Z,93.44
2019-01-05T22:31:51.579Z,93.47
2019-01-05T22:34:40.459Z,93.71
2019-01-05T22:37:27.474Z,93.71
2019-01-05T22:40:10.143Z,93.76
2019-01-05T22:43:00.503Z,93.81
2019-01-05T22:46:03.998Z,93.76
2019-01-05T22:48:51.128Z,93.71
2019-01-05T22:51:43.017Z,93.76
2019-01-05T22:54:31.321Z,93.48
2019-01-05T22:57:19.243Z,93.35
2019-01-05T23:00:10.459Z,93.15
2019-01-05T23:03:13.994Z,93.27
2019-01-05T23:06:17.489Z,93.30
2019-01-05T23:09:15.014Z,93.11
2019-01-05T23:12:21.687Z,93.09
2019-01-05T23:15:19.016Z,93.24
2019-01-05T23:18:06.177Z,93.23
2019-01-05T23:21:05.175Z,92.79
2019-01-05T23:23:53.879Z,92.79
2019-01-05T23:26:54.306Z,92.35
2019-01-05T23:29:41.157Z,92.39
2019-01-05T23:32:31.352Z,92.39
2019-01-05T23:35:28.400Z,92.47
2019-01-05T23:38:15.555Z,92.49
2019-01-05T23:41:07.439Z,92.72
2019-01-05T23:43:54.422Z,92.70
2019-01-05T23:46:48.065Z,92.89
2019-01-05T23:49:33.300Z,92.72
2019-01-05T23:52:34.091Z,92.66
2019-01-05T23:55:22.851Z,92.60
2019-01-05T23:58:01.079Z,92.66
